Time;durP1;ratioP1;P1;durP2;ratioP2;P2;SDS_P1;SDS_P2;PMS_P1;PMS_P2;Temp;Humidity;BMP_temperature;BMP_pressure;BME280_temperature;BME280_humidity;BME280_pressure;Samples;Min_cycle;Max_cycle;Signal;HPM_P1;HPM_P2
2022/09/03 00:01:21;;;;;;;0.60;0.60;;;12.70;64.20;;;12.84;49.90;94929.38;5020822;28;20254;-79
2022/09/03 00:04:05;;;;;;;0.60;0.60;;;12.70;65.20;;;12.80;50.22;94924.53;5011828;28;20231;-79
2022/09/03 00:06:57;;;;;;;0.60;0.60;;;12.70;65.00;;;12.79;50.02;94924.72;5005603;28;20331;-79
2022/09/03 00:09:46;;;;;;;0.70;0.70;;;12.70;64.40;;;12.75;49.67;94932.22;4996352;28;20385;-79
2022/09/03 00:12:23;;;;;;;0.52;0.52;;;12.60;64.30;;;12.72;49.75;94923.91;4995410;28;20294;-79
2022/09/03 00:15:09;;;;;;;0.60;0.60;;;12.60;64.10;;;12.70;49.82;94926.75;4995559;28;20228;-79
2022/09/03 00:17:53;;;;;;;0.60;0.60;;;12.50;64.40;;;12.67;50.04;94921.94;5010424;28;20228;-78
2022/09/03 00:20:40;;;;;;;0.60;0.60;;;12.50;64.40;;;12.64;49.81;94922.31;5014551;28;20224;-78
2022/09/03 00:23:23;;;;;;;0.60;0.60;;;12.50;64.40;;;12.61;49.77;94930.63;4982231;28;20257;-79
2022/09/03 00:26:17;;;;;;;0.60;0.60;;;12.50;64.20;;;12.58;50.47;94928.41;4995190;28;20673;-78
2022/09/03 00:28:53;;;;;;;0.60;0.60;;;12.50;64.70;;;12.56;50.12;94925.16;4995085;28;20686;-79
2022/09/03 00:31:37;;;;;;;0.60;0.60;;;12.50;64.40;;;12.53;50.08;94921.13;5011579;28;20283;-79
2022/09/03 00:34:16;;;;;;;0.70;0.70;;;12.40;64.40;;;12.50;50.09;94918.91;4995254;28;20216;-79
2022/09/03 00:36:45;;;;;;;0.70;0.70;;;12.40;64.40;;;12.45;50.40;94913.41;4995931;28;20629;-78
2022/09/03 00:39:16;;;;;;;0.60;0.60;;;12.30;64.30;;;12.45;50.44;94910.78;5033492;28;20229;-79
2022/09/03 00:42:08;;;;;;;0.60;0.60;;;12.40;64.60;;;12.42;50.54;94917.28;5001452;28;20707;-80
2022/09/03 00:45:08;;;;;;;0.70;0.70;;;12.30;65.00;;;12.37;50.45;94917.06;5001543;28;20212;-79
2022/09/03 00:48:18;;;;;;;0.80;0.80;;;12.20;64.80;;;12.31;50.35;94912.63;5014304;28;20671;-79
2022/09/03 00:51:27;;;;;;;0.60;0.60;;;12.20;65.00;;;12.27;50.32;94912.22;5032381;28;20193;-79
2022/09/03 00:53:59;;;;;;;0.63;0.63;;;12.20;65.00;;;12.25;50.46;94908.19;5017999;28;20545;-77
2022/09/03 00:56:43;;;;;;;0.63;0.63;;;12.20;64.80;;;12.23;50.52;94904.94;5018310;28;20306;-78
2022/09/03 00:59:47;;;;;;;0.60;0.60;;;12.10;65.20;;;12.17;50.76;94906.56;5021128;28;20203;-79
2022/09/03 01:02:45;;;;;;;0.60;0.60;;;12.10;66.30;;;12.14;50.75;94913.00;5021036;28;20251;-79
2022/09/03 01:05:44;;;;;;;0.60;0.60;;;12.00;65.20;;;12.09;50.66;94915.44;5033698;28;20220;-79
2022/09/03 01:08:49;;;;;;;0.60;0.60;;;12.00;65.30;;;12.07;50.68;94914.03;5017764;28;20290;-79
2022/09/03 01:11:39;;;;;;;0.60;0.60;;;12.00;64.60;;;12.05;50.67;94911.59;5017772;28;20588;-79
2022/09/03 01:14:24;;;;;;;0.70;0.70;;;11.90;65.30;;;12.01;50.86;94921.72;5002073;28;20267;-79
2022/09/03 01:17:02;;;;;;;0.70;0.70;;;11.90;64.60;;;11.99;51.02;94915.84;5019089;28;20216;-78
2022/09/03 01:20:07;;;;;;;0.60;0.60;;;11.90;65.30;;;11.97;51.04;94914.41;5001351;28;20224;-79
2022/09/03 01:22:56;;;;;;;0.70;0.70;;;11.80;65.60;;;11.93;51.01;94913.19;4984008;28;20235;-78
2022/09/03 01:25:35;;;;;;;0.60;0.60;;;11.80;64.80;;;11.93;51.12;94913.19;5017429;28;20201;-79
2022/09/03 01:29:06;;;;;;;0.60;0.60;;;11.80;65.40;;;11.87;51.16;94912.16;5017623;28;20244;-79
2022/09/03 01:32:04;;;;;;;0.60;0.60;;;11.80;65.70;;;11.86;51.29;94913.16;5017056;28;20240;-79
2022/09/03 01:34:55;;;;;;;0.60;0.60;;;11.80;64.90;;;11.81;51.21;94910.31;5001118;28;20203;-79
2022/09/03 01:37:57;;;;;;;0.60;0.60;;;11.70;64.90;;;11.81;51.48;94905.06;5016394;28;20282;-78
2022/09/03 01:40:46;;;;;;;0.75;0.75;;;11.70;65.90;;;11.75;51.53;94904.03;5035015;28;20246;-78
2022/09/03 01:43:16;;;;;;;0.80;0.80;;;11.70;66.00;;;11.78;51.42;94905.44;5026850;28;20199;-79
2022/09/03 01:45:50;;;;;;;0.70;0.70;;;11.60;65.10;;;11.76;51.38;94903.03;5017485;28;20201;-79
2022/09/03 01:48:30;;;;;;;0.60;0.60;;;11.70;65.40;;;11.75;51.64;94904.03;5027019;28;20232;-79
2022/09/03 01:51:22;;;;;;;0.80;0.80;;;11.60;66.10;;;11.70;51.66;94906.47;5030175;28;20284;-79
2022/09/03 01:54:13;;;;;;;0.70;0.70;;;11.60;66.30;;;11.71;51.66;94915.16;5013553;28;20248;-79
2022/09/03 01:57:12;;;;;;;0.60;0.60;;;11.60;65.40;;;11.67;51.75;94910.28;5028758;28;20225;-78
2022/09/03 02:00:14;;;;;;;0.60;0.60;;;11.60;66.30;;;11.64;51.83;94908.06;5013869;28;20220;-79
2022/09/03 02:02:46;;;;;;;0.60;0.60;;;11.60;66.30;;;11.64;51.70;94910.69;5030357;28;20219;-78
2022/09/03 02:05:19;;;;;;;0.80;0.80;;;11.50;65.70;;;11.64;51.71;94915.94;5005687;28;20651;-79
2022/09/03 02:08:06;;;;;;;0.65;0.65;;;11.50;66.40;;;11.61;51.98;94915.50;5017078;28;20690;-79
2022/09/03 02:10:42;;;;;;;0.70;0.70;;;11.50;66.50;;;11.62;52.07;94920.59;5012753;28;20303;-79
2022/09/03 02:13:24;;;;;;;0.70;0.70;;;11.50;66.40;;;11.60;51.92;94919.97;4997342;28;20235;-79
2022/09/03 02:15:55;;;;;;;0.70;0.70;;;11.50;66.70;;;11.59;51.94;94917.56;4997469;28;20577;-79
2022/09/03 02:18:30;;;;;;;0.70;0.70;;;11.40;65.90;;;11.58;52.35;94916.72;5003962;28;20208;-79
2022/09/03 02:21:00;;;;;;;0.70;0.70;;;11.40;66.20;;;11.58;52.08;94913.31;4981381;28;20643;-79
2022/09/03 02:23:27;;;;;;;0.60;0.60;;;11.40;66.10;;;11.54;52.18;94916.31;5014696;28;20673;-79
2022/09/03 02:26:02;;;;;;;0.60;0.60;;;11.50;66.10;;;11.54;52.24;94918.13;5016853;28;20192;-79
2022/09/03 02:28:31;;;;;;;0.70;0.70;;;11.40;66.30;;;11.54;52.24;94920.75;5012119;28;20916;-79
2022/09/03 02:30:58;;;;;;;0.80;0.80;;;11.40;66.30;;;11.49;52.36;94913.47;5031313;28;20203;-79
2022/09/03 02:33:26;;;;;;;0.70;0.70;;;11.40;66.10;;;11.50;52.45;94917.72;5047649;28;20208;-79
2022/09/03 02:35:54;;;;;;;0.80;0.80;;;11.40;66.30;;;11.51;52.68;94918.53;5016854;28;20243;-79
2022/09/03 02:38:25;;;;;;;0.70;0.70;;;11.40;66.30;;;11.50;52.53;94922.97;5030518;28;20215;-79
2022/09/03 02:40:53;;;;;;;0.73;0.73;;;11.40;66.50;;;11.48;52.66;94913.69;5016648;28;20250;-79
2022/09/03 02:43:37;;;;;;;0.70;0.70;;;11.30;66.30;;;11.46;52.69;94910.44;5016600;28;20673;-79
2022/09/03 02:46:09;;;;;;;0.65;0.65;;;11.40;67.30;;;11.46;52.53;94913.88;5016090;28;20318;-79
2022/09/03 02:48:36;;;;;;;0.70;0.70;;;11.30;66.70;;;11.43;52.55;94922.13;4997860;28;20207;-78
2022/09/03 02:51:04;;;;;;;0.70;0.70;;;11.30;66.40;;;11.42;52.68;94927.59;5032825;28;20307;-79
2022/09/03 02:53:41;;;;;;;0.60;0.60;;;11.30;66.40;;;11.41;52.74;94932.03;5032946;28;20192;-78
2022/09/03 02:56:09;;;;;;;0.60;0.60;;;11.30;66.50;;;11.38;52.86;94921.94;5011806;28;20217;-79
2022/09/03 02:58:36;;;;;;;0.80;0.80;;;11.30;66.50;;;11.36;52.94;94919.50;4996606;28;20251;-78
2022/09/03 03:01:05;;;;;;;0.80;0.80;;;11.30;66.50;;;11.36;52.79;94916.88;4999714;28;20667;-79
2022/09/03 03:03:32;;;;;;;0.60;0.60;;;11.20;66.60;;;11.35;53.04;94924.94;5012871;28;20263;-79
2022/09/03 03:06:05;;;;;;;0.70;0.70;;;11.20;66.60;;;11.35;53.18;94928.38;4980325;28;20204;-79
2022/09/03 03:08:33;;;;;;;0.70;0.70;;;11.20;67.20;;;11.32;52.93;94918.25;5023600;28;20201;-79
2022/09/03 03:11:01;;;;;;;0.60;0.60;;;11.30;66.80;;;11.32;52.92;94922.72;5011323;28;20201;-79
2022/09/03 03:13:30;;;;;;;0.70;0.70;;;11.20;66.80;;;11.31;53.12;94921.88;4995818;28;20240;-79
2022/09/03 03:16:00;;;;;;;0.80;0.80;;;11.20;66.90;;;11.29;53.02;94923.09;5001441;28;20471;-78
2022/09/03 03:18:28;;;;;;;0.60;0.60;;;11.10;66.90;;;11.29;53.24;94926.53;5015437;28;20664;-79
2022/09/03 03:20:55;;;;;;;0.60;0.60;;;11.20;66.90;;;11.27;53.18;94919.88;5011121;28;20229;-79
2022/09/03 03:23:22;;;;;;;0.60;0.60;;;11.20;66.90;;;11.27;53.27;94923.28;4982655;28;20220;-79
2022/09/03 03:25:49;;;;;;;0.60;0.60;;;11.10;66.90;;;11.26;53.18;94915.63;5011898;28;20218;-78
2022/09/03 03:28:19;;;;;;;0.70;0.70;;;11.10;66.90;;;11.22;53.50;94907.31;5028797;28;20204;-79
2022/09/03 03:30:47;;;;;;;0.60;0.60;;;11.10;67.00;;;11.23;53.41;94911.56;4995511;28;20197;-78
2022/09/03 03:33:15;;;;;;;0.80;0.80;;;11.10;67.10;;;11.22;53.40;94904.69;4996711;28;20208;-79
2022/09/03 03:35:42;;;;;;;0.70;0.70;;;11.10;67.10;;;11.18;53.31;94895.56;5012306;28;20197;-78
2022/09/03 03:38:09;;;;;;;0.80;0.80;;;11.00;67.10;;;11.18;53.47;94896.41;4996331;28;20205;-79
2022/09/03 03:40:38;;;;;;;0.70;0.70;;;11.10;67.20;;;11.16;53.50;94892.34;4997010;28;20409;-78
2022/09/03 03:43:05;;;;;;;0.63;0.63;;;11.00;67.30;;;11.15;53.47;94888.09;5031999;28;20291;-79
2022/09/03 03:45:32;;;;;;;0.70;0.70;;;11.00;67.20;;;11.15;53.51;94906.47;5031868;28;20667;-79
2022/09/03 03:47:59;;;;;;;0.80;0.80;;;11.10;67.30;;;11.13;53.63;94904.06;5016122;28;20683;-79
2022/09/03 03:50:27;;;;;;;0.60;0.60;;;11.00;67.30;;;11.05;53.75;94899.78;5006786;28;20208;-79
2022/09/03 03:52:55;;;;;;;0.63;0.63;;;11.00;67.30;;;11.08;53.75;94906.44;4995758;28;20229;-79
2022/09/03 03:55:22;;;;;;;0.80;0.80;;;11.00;67.40;;;11.08;53.85;94903.81;4993641;28;20209;-79
2022/09/03 03:57:53;;;;;;;0.80;0.80;;;11.00;67.40;;;11.08;53.73;94910.88;5008555;28;20228;-79
2022/09/03 04:00:20;;;;;;;0.70;0.70;;;11.00;67.40;;;11.06;53.82;94908.47;5011376;28;20236;-79
2022/09/03 04:02:50;;;;;;;0.80;0.80;;;11.00;67.40;;;11.01;53.91;94903.78;5015575;28;20222;-80
2022/09/03 04:05:18;;;;;;;0.60;0.60;;;10.90;67.40;;;11.03;53.58;94914.91;4995313;28;20219;-79
2022/09/03 04:07:49;;;;;;;0.70;0.70;;;10.90;67.50;;;11.03;53.94;94916.72;4997003;28;20224;-80
2022/09/03 04:10:16;;;;;;;0.68;0.68;;;11.00;67.50;;;11.01;53.84;94922.16;5006565;28;20208;-79
2022/09/03 04:12:44;;;;;;;0.68;0.68;;;10.90;67.60;;;11.00;54.23;94923.16;5029815;28;20769;-80
2022/09/03 04:15:11;;;;;;;0.70;0.70;;;10.90;67.60;;;10.99;53.88;94929.41;4996818;28;20260;-80
2022/09/03 04:17:38;;;;;;;0.70;0.70;;;10.90;67.70;;;10.99;54.12;94920.75;5019935;28;20229;-79
2022/09/03 04:20:06;;;;;;;0.70;0.70;;;10.90;67.80;;;10.98;54.26;94919.13;5012691;28;20641;-79
2022/09/03 04:22:33;;;;;;;0.70;0.70;;;10.90;67.80;;;10.98;54.33;94917.28;4999356;28;20213;-80
2022/09/03 04:25:00;;;;;;;0.60;0.60;;;10.80;67.80;;;10.97;54.29;94910.41;5001091;28;20197;-79
2022/09/03 04:27:27;;;;;;;0.75;0.75;;;10.80;67.90;;;10.97;54.18;94910.41;5009194;28;20328;-80
2022/09/03 04:29:54;;;;;;;0.70;0.70;;;10.80;67.90;;;10.98;54.14;94919.13;4995192;28;20193;-79
2022/09/03 04:35:07;;;;;;;0.68;0.68;;;10.80;68.00;;;10.99;54.40;94921.53;5029634;28;20210;-79
2022/09/03 04:37:35;;;;;;;0.70;0.70;;;10.90;68.10;;;11.01;54.42;94926.59;5022741;28;20687;-80
2022/09/03 04:40:03;;;;;;;0.60;0.60;;;10.80;68.10;;;11.01;54.64;94924.78;5036594;28;20227;-79
2022/09/03 04:42:30;;;;;;;0.60;0.60;;;10.90;68.20;;;11.02;54.71;94930.84;5022632;28;20683;-80
2022/09/03 04:44:57;;;;;;;0.68;0.68;;;10.90;68.30;;;11.00;54.45;94925.00;5013570;28;20679;-79
2022/09/03 04:47:25;;;;;;;0.70;0.70;;;10.90;68.30;;;11.08;54.68;94937.13;5020570;28;20212;-80
2022/09/03 04:49:52;;;;;;;0.60;0.60;;;10.90;68.40;;;11.05;54.95;94925.22;5029657;28;20193;-80
2022/09/03 04:52:20;;;;;;;0.70;0.70;;;11.10;68.60;;;11.12;54.74;94938.34;5020404;28;20209;-80
2022/09/03 04:54:47;;;;;;;0.70;0.70;;;11.00;68.60;;;11.13;54.88;94939.97;5002983;28;20220;-79
2022/09/03 04:57:14;;;;;;;0.60;0.60;;;11.00;68.80;;;11.16;55.46;94936.97;5020479;28;20212;-80
2022/09/03 04:59:41;;;;;;;0.80;0.80;;;11.10;68.80;;;11.24;55.02;94943.88;5005022;28;20643;-80
2022/09/03 05:02:08;;;;;;;0.70;0.70;;;11.10;68.80;;;11.32;55.12;94951.59;5011585;28;20229;-79
2022/09/03 05:04:52;;;;;;;0.80;0.80;;;11.20;68.90;;;11.36;55.19;94951.00;5027803;28;20265;-80
2022/09/03 05:07:19;;;;;;;0.60;0.60;;;11.20;68.90;;;11.44;55.70;94944.78;5021384;28;20745;-80
2022/09/03 05:09:48;;;;;;;0.65;0.65;;;11.30;69.00;;;11.51;55.56;94937.72;5016720;28;20215;-81
2022/09/03 05:12:16;;;;;;;0.63;0.63;;;11.40;69.20;;;11.62;55.50;94935.53;5028141;28;20217;-80
2022/09/03 05:14:43;;;;;;;0.70;0.70;;;11.50;69.30;;;11.67;55.56;94931.31;5036344;28;20631;-80
2022/09/03 05:17:10;;;;;;;0.60;0.60;;;11.50;69.30;;;11.81;55.53;94936.59;4997204;28;20217;-79
2022/09/03 05:19:37;;;;;;;0.70;0.70;;;11.60;69.30;;;11.90;55.80;94929.34;5036523;28;20713;-80
2022/09/03 05:22:04;;;;;;;0.70;0.70;;;11.70;69.30;;;11.98;55.39;94921.31;4996182;28;20219;-79
2022/09/03 05:24:31;;;;;;;0.70;0.70;;;11.80;69.30;;;12.08;55.64;94923.53;5014184;28;20356;-80
2022/09/03 05:26:58;;;;;;;0.70;0.70;;;11.90;69.40;;;12.17;55.60;94909.19;5008616;28;20212;-80
2022/09/03 05:29:26;;;;;;;0.70;0.70;;;12.00;69.40;;;12.28;55.66;94923.53;5024970;28;20214;-81
2022/09/03 05:31:53;;;;;;;0.60;0.60;;;12.30;70.40;;;12.37;55.78;94932.84;5012610;28;20223;-80
2022/09/03 05:34:20;;;;;;;0.60;0.60;;;12.30;69.50;;;12.47;55.64;94928.00;5031387;28;20722;-80
2022/09/03 05:36:48;;;;;;;0.70;0.70;;;12.30;69.40;;;12.57;55.81;94942.56;4997696;28;20706;-79
2022/09/03 05:39:16;;;;;;;0.60;0.60;;;12.40;69.30;;;12.65;55.62;94940.53;4993264;28;20291;-80
2022/09/03 05:41:43;;;;;;;0.70;0.70;;;12.50;69.30;;;12.76;55.68;94935.69;5024619;28;20758;-81
2022/09/03 05:44:10;;;;;;;0.63;0.63;;;12.60;69.30;;;12.87;55.50;94942.13;5024919;28;20212;-80
2022/09/03 05:46:37;;;;;;;0.70;0.70;;;12.70;69.40;;;12.93;55.79;94928.94;4996856;28;20212;-79
2022/09/03 05:49:06;;;;;;;0.70;0.70;;;12.80;69.30;;;13.04;55.64;94929.34;5013409;28;20615;-80
2022/09/03 05:51:36;;;;;;;0.65;0.65;;;13.00;69.30;;;13.10;55.74;94931.94;5013034;28;20208;-80
2022/09/03 05:54:04;;;;;;;0.68;0.68;;;13.00;69.10;;;13.16;55.69;94932.97;5029181;28;20188;-80
2022/09/03 05:56:34;;;;;;;0.60;0.60;;;13.10;69.00;;;13.26;55.54;94930.69;5013110;28;20250;-80
2022/09/03 05:59:08;;;;;;;0.60;0.60;;;13.20;69.00;;;13.34;55.50;94932.28;5029357;28;20204;-80
2022/09/03 06:01:41;;;;;;;0.60;0.60;;;13.30;69.00;;;13.40;55.29;94930.66;4997065;28;20223;-81
2022/09/03 06:04:18;;;;;;;0.60;0.60;;;13.50;69.10;;;13.44;55.61;94935.31;5011447;28;20255;-79
2022/09/03 06:06:46;;;;;;;0.60;0.60;;;13.40;68.80;;;13.57;55.68;94941.53;5024123;28;20219;-80
2022/09/03 06:09:21;;;;;;;0.60;0.60;;;13.50;68.80;;;13.64;55.24;94942.31;5026700;28;20207;-80
2022/09/03 06:11:50;;;;;;;0.70;0.70;;;13.60;69.00;;;13.72;55.39;94934.19;4994577;28;20219;-80
2022/09/03 06:14:19;;;;;;;0.60;0.60;;;13.70;68.80;;;13.81;55.24;94939.22;5014979;28;20280;-80
2022/09/03 06:16:48;;;;;;;0.70;0.70;;;13.80;68.90;;;13.88;55.43;94947.91;5017535;28;20220;-79
2022/09/03 06:19:16;;;;;;;0.60;0.60;;;13.80;68.60;;;13.94;55.20;94941.78;5028164;28;20205;-80
2022/09/03 06:21:45;;;;;;;0.70;0.70;;;13.90;68.60;;;14.00;55.05;94942.75;5000679;28;20248;-80
2022/09/03 06:24:19;;;;;;;0.60;0.60;;;14.00;68.70;;;14.09;55.22;94947.53;5020051;28;20207;-80
2022/09/03 06:26:47;;;;;;;0.50;0.50;;;14.10;68.70;;;14.18;55.23;94942.03;5012482;28;20212;-80
2022/09/03 06:29:14;;;;;;;0.60;0.60;;;14.20;68.80;;;14.27;55.25;94929.38;5011873;28;20682;-80
2022/09/03 06:31:41;;;;;;;0.63;0.63;;;14.20;68.60;;;14.35;55.31;94931.75;5010537;28;20335;-79
2022/09/03 06:34:09;;;;;;;0.60;0.60;;;14.30;68.60;;;14.40;55.31;94926.63;5008965;28;20197;-79
2022/09/03 06:36:40;;;;;;;0.60;0.60;;;14.40;68.50;;;14.49;55.22;94925.34;5020691;28;20244;-79
2022/09/03 06:39:08;;;;;;;0.60;0.60;;;14.50;68.60;;;14.55;55.13;94921.84;5017555;28;20295;-80
2022/09/03 06:41:38;;;;;;;0.70;0.70;;;14.50;68.50;;;14.62;55.05;94920.97;5011512;28;20223;-80
2022/09/03 06:44:10;;;;;;;0.50;0.50;;;14.60;68.40;;;14.71;55.10;94923.16;4996529;28;20199;-81
2022/09/03 06:46:41;;;;;;;0.70;0.70;;;14.80;68.50;;;14.79;54.95;94915.97;5010948;28;20675;-80
2022/09/03 06:49:10;;;;;;;0.60;0.60;;;14.80;68.60;;;14.88;55.24;94907.56;5014669;28;20907;-80
2022/09/03 06:51:38;;;;;;;0.60;0.60;;;14.90;68.70;;;14.99;55.15;94902.56;5017839;28;20220;-80
2022/09/03 06:54:09;;;;;;;0.60;0.60;;;15.00;68.60;;;15.09;55.10;94905.50;4993837;28;20200;-80
2022/09/03 06:56:39;;;;;;;0.50;0.50;;;15.00;68.60;;;15.19;54.89;94912.94;5009152;28;20290;-80
2022/09/03 06:59:11;;;;;;;0.60;0.60;;;15.20;68.50;;;15.25;54.79;94900.69;5003636;28;20521;-79
2022/09/03 07:01:39;;;;;;;0.55;0.55;;;15.30;69.40;;;15.36;54.75;94900.72;5002644;28;20232;-80
2022/09/03 07:04:14;;;;;;;0.50;0.50;;;15.30;68.50;;;15.46;54.76;94907.34;5002059;28;20189;-80
2022/09/03 07:06:43;;;;;;;0.60;0.60;;;15.50;68.40;;;15.55;54.49;94911.28;4986045;28;20246;-81
2022/09/03 07:09:12;;;;;;;0.43;0.43;;;15.50;68.30;;;15.66;54.48;94907.06;5014050;28;20200;-81
2022/09/03 07:11:45;;;;;;;0.60;0.60;;;15.70;68.50;;;15.78;54.66;94909.75;5011386;28;20721;-80
2022/09/03 07:14:19;;;;;;;0.60;0.60;;;15.70;68.40;;;15.88;54.58;94911.91;5010673;28;20238;-81
2022/09/03 07:16:49;;;;;;;0.60;0.60;;;15.80;68.20;;;15.96;54.11;94908.94;5026409;28;20231;-80
2022/09/03 07:19:16;;;;;;;0.60;0.60;;;15.90;68.20;;;16.06;54.42;94914.47;5007906;28;20197;-81
2022/09/03 07:21:44;;;;;;;0.60;0.60;;;16.00;68.20;;;16.17;54.23;94918.19;5010946;28;20270;-81
2022/09/03 07:24:18;;;;;;;0.60;0.60;;;16.10;68.10;;;16.24;53.94;94910.97;5010564;28;20657;-80
2022/09/03 07:26:47;;;;;;;0.60;0.60;;;16.20;67.90;;;16.31;53.99;94916.16;5017673;28;20235;-81
2022/09/03 07:29:18;;;;;;;0.60;0.60;;;16.30;68.00;;;16.34;53.89;94905.09;5026291;28;20467;-80
2022/09/03 07:31:49;;;;;;;0.40;0.40;;;16.30;67.80;;;16.44;53.76;94915.97;5006513;28;20222;-80
2022/09/03 07:34:19;;;;;;;0.60;0.60;;;16.40;67.70;;;16.52;53.86;94911.38;5010754;28;20188;-80
2022/09/03 07:36:49;;;;;;;0.50;0.50;;;16.50;67.70;;;16.58;53.56;94907.78;5031290;28;20226;-80
2022/09/03 07:39:18;;;;;;;0.60;0.60;;;16.60;67.70;;;16.66;54.07;94918.03;5017914;28;20197;-80
2022/09/03 07:41:46;;;;;;;0.50;0.50;;;16.60;67.60;;;16.73;53.74;94909.97;5006895;28;20231;-80
2022/09/03 07:44:20;;;;;;;0.60;0.60;;;16.70;67.60;;;16.79;53.41;94915.16;4993417;28;20199;-81
2022/09/03 07:46:49;;;;;;;0.52;0.52;;;16.80;67.70;;;16.84;53.42;94914.47;4989282;28;20233;-80
2022/09/03 07:49:20;;;;;;;0.50;0.50;;;16.80;67.60;;;16.96;53.28;94923.25;5010642;28;20293;-80
2022/09/03 07:51:52;;;;;;;0.50;0.50;;;16.90;67.50;;;17.06;53.37;94932.47;4989420;28;20216;-81
2022/09/03 07:54:22;;;;;;;0.50;0.50;;;17.00;67.40;;;17.12;53.02;94923.56;5008630;28;20621;-80
2022/09/03 07:56:49;;;;;;;0.50;0.50;;;17.10;67.30;;;17.20;53.61;94930.34;5010815;28;20209;-79
2022/09/03 07:59:16;;;;;;;0.70;0.70;;;17.20;67.30;;;17.27;52.82;94931.88;5009603;28;20236;-81
2022/09/03 08:01:44;;;;;;;0.52;0.52;;;17.30;67.30;;;17.36;52.95;94926.22;5008545;28;20749;-81
2022/09/03 08:04:12;;;;;;;0.52;0.52;;;17.40;67.20;;;17.40;53.09;94919.38;5010909;28;20195;-81
2022/09/03 08:06:39;;;;;;;0.52;0.52;;;17.40;67.10;;;17.51;53.00;94931.81;5010137;28;20223;-80
2022/09/03 08:09:12;;;;;;;0.50;0.50;;;17.50;67.10;;;17.57;52.94;94927.41;5008680;28;20201;-81
2022/09/03 08:11:42;;;;;;;0.60;0.60;;;17.60;67.20;;;17.67;52.98;94927.59;5023730;28;20748;-80
2022/09/03 08:14:11;;;;;;;0.50;0.50;;;17.70;67.20;;;17.74;52.78;94920.31;5008841;28;20204;-81
2022/09/03 08:16:47;;;;;;;0.50;0.50;;;17.70;67.10;;;17.85;52.98;94920.50;5023463;28;20223;-80
2022/09/03 08:19:17;;;;;;;0.50;0.50;;;17.80;67.20;;;17.96;52.87;94914.38;5001614;28;20195;-80
2022/09/03 08:21:46;;;;;;;0.50;0.50;;;17.90;67.20;;;18.08;53.04;94915.13;4987977;28;20247;-80
2022/09/03 08:24:16;;;;;;;0.47;0.47;;;18.00;67.20;;;18.18;52.38;94916.34;5014534;28;20693;-80
2022/09/03 08:26:43;;;;;;;0.50;0.50;;;18.10;67.10;;;18.29;52.42;94917.34;4992073;28;20218;-81
2022/09/03 08:29:19;;;;;;;0.60;0.60;;;18.20;67.20;;;18.39;52.85;94920.13;5009387;28;20271;-79
2022/09/03 08:31:46;;;;;;;0.50;0.50;;;18.30;67.30;;;18.49;52.96;94927.47;5011858;28;20270;-80
2022/09/03 08:34:16;;;;;;;0.50;0.50;;;18.40;67.30;;;18.59;52.68;94922.34;4988231;28;20196;-80
2022/09/03 08:36:45;;;;;;;0.70;0.70;;;18.50;67.10;;;18.70;52.55;94913.47;5002241;28;20223;-81
2022/09/03 08:39:13;;;;;;;0.50;0.50;;;18.60;67.10;;;18.81;52.21;94919.75;4997895;28;20321;-80
2022/09/03 08:41:52;;;;;;;0.47;0.47;;;18.70;66.90;;;18.91;51.98;94927.09;5035506;28;20220;-80
2022/09/03 08:44:28;;;;;;;0.40;0.40;;;18.80;66.80;;;18.97;51.94;94915.47;5034170;28;20201;-80
2022/09/03 08:47:11;;;;;;;0.50;0.50;;;18.90;66.70;;;19.09;52.20;94911.91;5017894;28;20299;-80
2022/09/03 08:50:04;;;;;;;0.50;0.50;;;19.00;66.20;;;19.16;51.79;94915.19;5033124;28;20247;-80
2022/09/03 08:52:36;;;;;;;0.40;0.40;;;19.10;66.20;;;19.22;51.29;94910.75;5024569;28;20228;-79
2022/09/03 08:55:28;;;;;;;0.60;0.60;;;19.20;66.00;;;19.27;51.32;94911.59;5025834;28;20624;-79
2022/09/03 08:58:01;;;;;;;0.50;0.50;;;19.30;66.20;;;19.35;51.26;94905.84;5015025;28;20271;-80
2022/09/03 09:00:49;;;;;;;0.50;0.50;;;19.30;66.20;;;19.44;51.40;94911.53;5019225;28;20227;-80
2022/09/03 09:03:35;;;;;;;0.43;0.43;;;19.40;66.20;;;19.52;51.25;94908.47;5024304;28;20215;-79
2022/09/03 09:06:11;;;;;;;0.50;0.50;;;19.50;66.10;;;19.62;51.47;94914.97;5041626;28;20207;-79
2022/09/03 09:09:01;;;;;;;0.50;0.50;;;19.60;66.20;;;19.71;51.23;94918.78;5001047;28;20184;-80
2022/09/03 09:12:02;;;;;;;0.40;0.40;;;19.70;66.20;;;19.81;51.38;94918.09;5002041;28;20256;-80
2022/09/03 09:15:10;;;;;;;0.40;0.40;;;19.70;65.90;;;19.90;51.90;94921.16;5017816;28;20262;-79
2022/09/03 09:18:06;;;;;;;0.50;0.50;;;19.80;66.40;;;20.02;51.76;94926.31;5023198;28;20664;-81
2022/09/03 09:21:06;;;;;;;0.40;0.40;;;20.00;66.30;;;20.12;51.23;94919.22;5005419;28;20291;-81
2022/09/03 09:23:49;;;;;;;0.40;0.40;;;20.00;66.10;;;20.20;50.83;94914.50;5028690;28;20216;-81
2022/09/03 09:26:20;;;;;;;0.50;0.50;;;20.10;65.50;;;20.26;51.10;94914.31;5019010;28;20609;-80
2022/09/03 09:29:03;;;;;;;0.40;0.40;;;20.20;65.80;;;20.35;50.84;94909.31;5018017;28;20867;-80
2022/09/03 09:31:32;;;;;;;0.50;0.50;;;20.30;65.70;;;20.42;50.91;94912.59;5024173;28;20216;-80
2022/09/03 09:34:07;;;;;;;0.47;0.47;;;20.40;65.50;;;20.52;50.19;94911.03;5023806;28;20208;-80
2022/09/03 09:36:48;;;;;;;0.40;0.40;;;20.40;65.40;;;20.57;50.76;94914.56;5011942;28;20230;-80
2022/09/03 09:39:16;;;;;;;0.50;0.50;;;20.50;65.40;;;20.65;50.42;94907.94;5025796;28;20199;-81
2022/09/03 09:42:10;;;;;;;0.52;0.52;;;20.60;65.30;;;20.72;50.23;94921.09;5012568;28;20303;-81
2022/09/03 09:44:40;;;;;;;0.50;0.50;;;20.60;65.20;;;20.82;50.08;94912.38;5016542;28;20203;-81
2022/09/03 09:47:22;;;;;;;0.50;0.50;;;20.70;64.90;;;20.88;50.23;94906.00;5007213;28;20527;-80
2022/09/03 09:49:57;;;;;;;0.47;0.47;;;20.80;65.20;;;20.94;50.17;94905.78;5017588;28;20190;-81
2022/09/03 09:52:28;;;;;;;0.50;0.50;;;20.90;64.80;;;21.00;50.00;94898.63;5036623;28;20778;-81
2022/09/03 09:55:09;;;;;;;0.50;0.50;;;20.90;65.10;;;21.10;49.91;94903.22;5009593;28;20217;-80
2022/09/03 09:57:38;;;;;;;0.50;0.50;;;21.00;65.20;;;21.20;49.62;94903.28;4993396;28;20280;-80
2022/09/03 10:00:11;;;;;;;0.50;0.50;;;21.10;65.00;;;21.29;49.98;94900.91;5025029;28;20204;-80
2022/09/03 10:02:46;;;;;;;0.40;0.40;;;21.20;65.00;;;21.40;49.86;94893.75;5013943;28;20256;-80
2022/09/03 10:05:26;;;;;;;0.40;0.40;;;21.30;64.50;;;21.50;49.48;94898.34;5033982;28;20212;-81
2022/09/03 10:07:59;;;;;;;0.40;0.40;;;21.40;64.60;;;21.56;49.29;94899.97;5012794;28;20309;-81
2022/09/03 10:10:34;;;;;;;0.47;0.47;;;21.50;64.60;;;21.67;49.64;94904.28;5014088;28;20208;-81
2022/09/03 10:13:12;;;;;;;0.40;0.40;;;21.50;64.70;;;21.75;48.99;94900.28;5030829;28;20218;-80
2022/09/03 10:15:46;;;;;;;0.50;0.50;;;21.60;64.70;;;21.80;49.07;94903.00;5030710;28;20234;-81
2022/09/03 10:18:50;;;;;;;0.30;0.30;;;21.70;64.80;;;21.87;48.94;94903.56;5030726;28;20184;-80
2022/09/03 10:21:42;;;;;;;0.43;0.43;;;21.80;64.90;;;21.95;48.77;94898.75;5030466;28;20236;-80
2022/09/03 10:24:39;;;;;;;0.50;0.50;;;21.80;64.40;;;22.00;48.96;94894.22;5030470;28;20184;-80
2022/09/03 10:27:13;;;;;;;0.50;0.50;;;21.90;64.60;;;22.08;49.00;94892.88;5030577;28;20653;-80
2022/09/03 10:29:41;;;;;;;0.50;0.50;;;22.00;64.60;;;22.18;48.47;94897.44;5032692;28;20192;-81
2022/09/03 10:32:41;;;;;;;0.50;0.50;;;22.00;64.10;;;22.23;48.72;94890.25;5032686;28;20215;-80
2022/09/03 10:35:32;;;;;;;0.60;0.60;;;22.10;64.40;;;22.33;48.36;94905.47;5031825;28;20594;-81
2022/09/03 10:38:27;;;;;;;0.52;0.52;;;22.20;64.20;;;22.41;48.32;94893.50;5032329;28;20316;-80
2022/09/03 10:41:27;;;;;;;0.50;0.50;;;22.30;64.30;;;22.52;48.61;94903.13;5032260;28;20195;-80
2022/09/03 10:44:05;;;;;;;0.50;0.50;;;22.40;64.20;;;22.63;48.26;94897.75;5032422;28;20285;-80
2022/09/03 10:47:11;;;;;;;0.50;0.50;;;22.50;64.40;;;22.75;48.46;94898.28;5032240;28;20242;-81
2022/09/03 10:49:42;;;;;;;0.43;0.43;;;22.60;64.30;;;22.89;48.38;94889.69;5028251;28;20217;-81
2022/09/03 10:52:42;;;;;;;0.57;0.57;;;22.70;64.10;;;22.95;47.67;94881.41;5010578;28;20221;-81
2022/09/03 10:55:18;;;;;;;0.60;0.60;;;22.80;63.60;;;23.08;47.84;94888.06;4995880;28;20303;-81
2022/09/03 10:58:22;;;;;;;0.40;0.40;;;22.90;63.70;;;23.16;47.66;94878.69;5025548;28;20677;-81